sensor_id;sensor_type;location;lat;lon;timestamp;pressure;altitude;pressure_sealevel;temperature;humidity
16194;BME280;8204;53.582;10.080;2023-04-26T00:00:10;100873.00;;;6.95;100.00
16194;BME280;8204;53.582;10.080;2023-04-26T00:02:39;100885.19;;;7.04;100.00
16194;BME280;8204;53.582;10.080;2023-04-26T00:05:10;100891.09;;;7.06;100.00
16194;BME280;8204;53.582;10.080;2023-04-26T00:07:39;100893.47;;;7.09;100.00
16194;BME280;8204;53.582;10.080;2023-04-26T00:10:10;100903.19;;;7.07;100.00
16194;BME280;8204;53.582;10.080;2023-04-26T00:12:39;100916.22;;;7.07;100.00
16194;BME280;8204;53.582;10.080;2023-04-26T00:15:09;100920.47;;;7.08;100.00
16194;BME280;8204;53.582;10.080;2023-04-26T00:17:38;100911.00;;;7.07;100.00
16194;BME280;8204;53.582;10.080;2023-04-26T00:20:11;100918.81;;;7.07;100.00
16194;BME280;8204;53.582;10.080;2023-04-26T00:22:46;100907.31;;;7.10;100.00
16194;BME280;8204;53.582;10.080;2023-04-26T00:25:16;100922.66;;;7.03;100.00
16194;BME280;8204;53.582;10.080;2023-04-26T00:27:45;100928.28;;;7.08;100.00
16194;BME280;8204;53.582;10.080;2023-04-26T00:30:16;100935.81;;;7.11;100.00
16194;BME280;8204;53.582;10.080;2023-04-26T00:32:45;100930.63;;;7.11;100.00
16194;BME280;8204;53.582;10.080;2023-04-26T00:35:17;100925.69;;;7.08;100.00
16194;BME280;8204;53.582;10.080;2023-04-26T00:37:46;100905.78;;;7.07;100.00
16194;BME280;8204;53.582;10.080;2023-04-26T00:40:19;100903.19;;;7.07;100.00
16194;BME280;8204;53.582;10.080;2023-04-26T00:42:58;100915.88;;;6.91;100.00
16194;BME280;8204;53.582;10.080;2023-04-26T00:45:37;100916.44;;;6.95;100.00
16194;BME280;8204;53.582;10.080;2023-04-26T00:48:14;100916.66;;;6.82;100.00
16194;BME280;8204;53.582;10.080;2023-04-26T00:50:46;100911.47;;;6.82;100.00
16194;BME280;8204;53.582;10.080;2023-04-26T00:53:16;100909.81;;;6.81;100.00
16194;BME280;8204;53.582;10.080;2023-04-26T00:55:46;100909.81;;;6.81;100.00
16194;BME280;8204;53.582;10.080;2023-04-26T00:58:16;100921.88;;;6.82;100.00
16194;BME280;8204;53.582;10.080;2023-04-26T01:00:45;100910.50;;;6.83;100.00
16194;BME280;8204;53.582;10.080;2023-04-26T01:03:15;100907.91;;;6.83;100.00
16194;BME280;8204;53.582;10.080;2023-04-26T01:05:47;100893.38;;;6.81;100.00
16194;BME280;8204;53.582;10.080;2023-04-26T01:08:16;100890.88;;;6.79;100.00
16194;BME280;8204;53.582;10.080;2023-04-26T01:10:46;100868.13;;;6.81;100.00
16194;BME280;8204;53.582;10.080;2023-04-26T01:13:15;100874.34;;;6.90;100.00
16194;BME280;8204;53.582;10.080;2023-04-26T01:15:45;100873.34;;;6.81;100.00
16194;BME280;8204;53.582;10.080;2023-04-26T01:18:14;100862.69;;;6.84;100.00
16194;BME280;8204;53.582;10.080;2023-04-26T01:20:43;100878.56;;;6.81;100.00
16194;BME280;8204;53.582;10.080;2023-04-26T01:23:15;100875.53;;;6.76;100.00
16194;BME280;8204;53.582;10.080;2023-04-26T01:25:44;100880.03;;;6.74;100.00
16194;BME280;8204;53.582;10.080;2023-04-26T01:28:13;100880.66;;;6.57;100.00
16194;BME280;8204;53.582;10.080;2023-04-26T01:30:42;100871.19;;;6.56;100.00
16194;BME280;8204;53.582;10.080;2023-04-26T01:33:11;100864.34;;;6.55;100.00
16194;BME280;8204;53.582;10.080;2023-04-26T01:35:41;100865.03;;;6.57;100.00
16194;BME280;8204;53.582;10.080;2023-04-26T01:38:10;100869.53;;;6.55;100.00
16194;BME280;8204;53.582;10.080;2023-04-26T01:40:42;100858.94;;;6.48;100.00
16194;BME280;8204;53.582;10.080;2023-04-26T01:43:11;100856.69;;;6.34;100.00
16194;BME280;8204;53.582;10.080;2023-04-26T01:45:45;100849.81;;;6.33;100.00
16194;BME280;8204;53.582;10.080;2023-04-26T01:48:14;100843.94;;;6.31;100.00
16194;BME280;8204;53.582;10.080;2023-04-26T01:50:44;100845.47;;;6.33;100.00
16194;BME280;8204;53.582;10.080;2023-04-26T01:53:13;100847.88;;;6.25;100.00
16194;BME280;8204;53.582;10.080;2023-04-26T01:55:44;100841.59;;;6.28;100.00
16194;BME280;8204;53.582;10.080;2023-04-26T01:58:13;100848.19;;;6.32;100.00
16194;BME280;8204;53.582;10.080;2023-04-26T02:00:41;100847.72;;;6.27;100.00
16194;BME280;8204;53.582;10.080;2023-04-26T02:03:11;100847.50;;;6.30;100.00
16194;BME280;8204;53.582;10.080;2023-04-26T02:05:40;100853.41;;;6.32;100.00
16194;BME280;8204;53.582;10.080;2023-04-26T02:08:09;100856.69;;;6.34;100.00
16194;BME280;8204;53.582;10.080;2023-04-26T02:10:38;100841.91;;;6.34;100.00
16194;BME280;8204;53.582;10.080;2023-04-26T02:13:09;100842.44;;;6.28;100.00
16194;BME280;8204;53.582;10.080;2023-04-26T02:15:38;100844.63;;;6.33;100.00
16194;BME280;8204;53.582;10.080;2023-04-26T02:18:07;100847.78;;;6.36;100.00
16194;BME280;8204;53.582;10.080;2023-04-26T02:20:36;100834.72;;;6.27;100.00
16194;BME280;8204;53.582;10.080;2023-04-26T02:23:07;100782.16;;;6.33;100.00
16194;BME280;8204;53.582;10.080;2023-04-26T02:25:37;100740.41;;;6.25;100.00
16194;BME280;8204;53.582;10.080;2023-04-26T02:28:09;100664.81;;;6.26;100.00
16194;BME280;8204;53.582;10.080;2023-04-26T02:30:37;100535.81;;;6.24;100.00
16194;BME280;8204;53.582;10.080;2023-04-26T02:33:07;100483.50;;;6.17;100.00
16194;BME280;8204;53.582;10.080;2023-04-26T02:35:36;100440.78;;;6.20;100.00
16194;BME280;8204;53.582;10.080;2023-04-26T02:38:05;100449.28;;;6.12;100.00
16194;BME280;8204;53.582;10.080;2023-04-26T02:40:34;100406.56;;;6.15;100.00
16194;BME280;8204;53.582;10.080;2023-04-26T02:43:03;100382.06;;;6.08;100.00
16194;BME280;8204;53.582;10.080;2023-04-26T02:45:39;100371.81;;;6.16;100.00
16194;BME280;8204;53.582;10.080;2023-04-26T02:48:08;100408.63;;;6.11;100.00
16194;BME280;8204;53.582;10.080;2023-04-26T02:50:37;100401.94;;;6.09;100.00
16194;BME280;8204;53.582;10.080;2023-04-26T02:53:06;100420.28;;;5.98;100.00
16194;BME280;8204;53.582;10.080;2023-04-26T02:55:35;100399.88;;;6.03;100.00
16194;BME280;8204;53.582;10.080;2023-04-26T02:58:04;100422.75;;;5.99;100.00
16194;BME280;8204;53.582;10.080;2023-04-26T03:00:37;100427.78;;;6.01;100.00
16194;BME280;8204;53.582;10.080;2023-04-26T03:03:05;100442.44;;;6.02;100.00
16194;BME280;8204;53.582;10.080;2023-04-26T03:05:34;100453.00;;;6.00;100.00
16194;BME280;8204;53.582;10.080;2023-04-26T03:08:04;100468.03;;;5.97;100.00
16194;BME280;8204;53.582;10.080;2023-04-26T03:10:33;100476.25;;;5.92;100.00
16194;BME280;8204;53.582;10.080;2023-04-26T03:13:03;100465.03;;;5.92;100.00
16194;BME280;8204;53.582;10.080;2023-04-26T03:15:32;100470.25;;;5.92;100.00
16194;BME280;8204;53.582;10.080;2023-04-26T03:18:03;100459.69;;;5.93;100.00
16194;BME280;8204;53.582;10.080;2023-04-26T03:20:32;100469.41;;;5.91;100.00
16194;BME280;8204;53.582;10.080;2023-04-26T03:23:01;100464.09;;;5.93;100.00
16194;BME280;8204;53.582;10.080;2023-04-26T03:25:29;100460.94;;;5.89;100.00
16194;BME280;8204;53.582;10.080;2023-04-26T03:27:58;100463.25;;;5.83;100.00
16194;BME280;8204;53.582;10.080;2023-04-26T03:30:27;100447.63;;;5.83;100.00
16194;BME280;8204;53.582;10.080;2023-04-26T03:32:56;100444.78;;;5.86;100.00
16194;BME280;8204;53.582;10.080;2023-04-26T03:35:28;100468.84;;;5.88;100.00
16194;BME280;8204;53.582;10.080;2023-04-26T03:37:57;100491.59;;;5.86;100.00
16194;BME280;8204;53.582;10.080;2023-04-26T03:40:26;100494.28;;;5.84;100.00
16194;BME280;8204;53.582;10.080;2023-04-26T03:42:55;100478.59;;;5.86;100.00
16194;BME280;8204;53.582;10.080;2023-04-26T03:45:24;100487.75;;;5.90;100.00
16194;BME280;8204;53.582;10.080;2023-04-26T03:47:54;100491.97;;;5.81;100.00
16194;BME280;8204;53.582;10.080;2023-04-26T03:50:24;100491.59;;;5.86;100.00
16194;BME280;8204;53.582;10.080;2023-04-26T03:52:55;100481.84;;;5.88;100.00
16194;BME280;8204;53.582;10.080;2023-04-26T03:55:24;100490.75;;;5.95;100.00
16194;BME280;8204;53.582;10.080;2023-04-26T03:57:53;100489.81;;;5.96;100.00
16194;BME280;8204;53.582;10.080;2023-04-26T04:00:22;100507.72;;;5.89;100.00
16194;BME280;8204;53.582;10.080;2023-04-26T04:02:51;100501.00;;;5.87;100.00
16194;BME280;8204;53.582;10.080;2023-04-26T04:05:20;100489.66;;;5.88;100.00
16194;BME280;8204;53.582;10.080;2023-04-26T04:07:49;100481.84;;;5.88;100.00
16194;BME280;8204;53.582;10.080;2023-04-26T04:10:20;100505.81;;;5.91;100.00
16194;BME280;8204;53.582;10.080;2023-04-26T04:12:50;100529.50;;;5.88;100.00
16194;BME280;8204;53.582;10.080;2023-04-26T04:15:19;100531.53;;;5.85;100.00
16194;BME280;8204;53.582;10.080;2023-04-26T04:17:49;100523.44;;;5.78;100.00
16194;BME280;8204;53.582;10.080;2023-04-26T04:20:18;100518.72;;;5.73;100.00
16194;BME280;8204;53.582;10.080;2023-04-26T04:22:48;100520.25;;;5.75;100.00
16194;BME280;8204;53.582;10.080;2023-04-26T04:25:20;100535.97;;;5.74;100.00
16194;BME280;8204;53.582;10.080;2023-04-26T04:27:50;100538.56;;;5.64;100.00
16194;BME280;8204;53.582;10.080;2023-04-26T04:30:19;100532.41;;;5.65;100.00
16194;BME280;8204;53.582;10.080;2023-04-26T04:32:48;100526.25;;;5.66;100.00
16194;BME280;8204;53.582;10.080;2023-04-26T04:35:17;100529.72;;;5.76;100.00
16194;BME280;8204;53.582;10.080;2023-04-26T04:37:46;100539.66;;;5.71;100.00
16194;BME280;8204;53.582;10.080;2023-04-26T04:40:16;100545.44;;;5.75;100.00
16194;BME280;8204;53.582;10.080;2023-04-26T04:42:47;100554.03;;;5.75;100.00
16194;BME280;8204;53.582;10.080;2023-04-26T04:45:17;100547.31;;;5.73;100.00
16194;BME280;8204;53.582;10.080;2023-04-26T04:47:46;100555.47;;;5.79;100.00
16194;BME280;8204;53.582;10.080;2023-04-26T04:50:15;100565.44;;;5.83;100.00
16194;BME280;8204;53.582;10.080;2023-04-26T04:52:45;100559.28;;;5.84;100.00
16194;BME280;8204;53.582;10.080;2023-04-26T04:55:15;100561.78;;;5.86;100.00
16194;BME280;8204;53.582;10.080;2023-04-26T04:57:47;100560.53;;;5.90;100.00
16194;BME280;8204;53.582;10.080;2023-04-26T05:00:17;100545.09;;;5.98;100.00
16194;BME280;8204;53.582;10.080;2023-04-26T05:02:46;100563.03;;;6.01;100.00
16194;BME280;8204;53.582;10.080;2023-04-26T05:05:15;100566.72;;;5.98;100.00
16194;BME280;8204;53.582;10.080;2023-04-26T05:07:45;100555.38;;;6.09;100.00
16194;BME280;8204;53.582;10.080;2023-04-26T05:10:14;100559.47;;;6.11;100.00
16194;BME280;8204;53.582;10.080;2023-04-26T05:12:44;100570.03;;;6.10;100.00
16194;BME280;8204;53.582;10.080;2023-04-26T05:15:15;100577.56;;;6.13;100.00
16194;BME280;8204;53.582;10.080;2023-04-26T05:17:44;100568.25;;;6.20;100.00
16194;BME280;8204;53.582;10.080;2023-04-26T05:20:13;100562.38;;;6.27;100.00
16194;BME280;8204;53.582;10.080;2023-04-26T05:22:42;100567.19;;;6.32;100.00
16194;BME280;8204;53.582;10.080;2023-04-26T05:25:11;100580.47;;;6.38;100.00
16194;BME280;8204;53.582;10.080;2023-04-26T05:27:40;100591.72;;;6.39;100.00
16194;BME280;8204;53.582;10.080;2023-04-26T05:30:11;100606.34;;;6.40;100.00
16194;BME280;8204;53.582;10.080;2023-04-26T05:32:43;100613.19;;;6.41;100.00
16194;BME280;8204;53.582;10.080;2023-04-26T05:35:12;100629.50;;;6.43;100.00
16194;BME280;8204;53.582;10.080;2023-04-26T05:37:41;100628.81;;;6.41;100.00
16194;BME280;8204;53.582;10.080;2023-04-26T05:40:12;100628.81;;;6.41;100.00
16194;BME280;8204;53.582;10.080;2023-04-26T05:42:41;100627.84;;;6.42;100.00
16194;BME280;8204;53.582;10.080;2023-04-26T05:45:10;100628.56;;;6.44;100.00
16194;BME280;8204;53.582;10.080;2023-04-26T05:47:39;100633.22;;;6.40;100.00
16194;BME280;8204;53.582;10.080;2023-04-26T05:50:11;100625.41;;;6.50;100.00
16194;BME280;8204;53.582;10.080;2023-04-26T05:52:39;100623.63;;;6.59;100.00
16194;BME280;8204;53.582;10.080;2023-04-26T05:55:09;100626.91;;;6.61;100.00
16194;BME280;8204;53.582;10.080;2023-04-26T05:57:39;100646.63;;;6.54;100.00
16194;BME280;8204;53.582;10.080;2023-04-26T06:00:09;100641.97;;;6.49;100.00
16194;BME280;8204;53.582;10.080;2023-04-26T06:02:39;100601.44;;;6.74;100.00
16194;BME280;8204;53.582;10.080;2023-04-26T06:05:10;100613.34;;;6.86;100.00
16194;BME280;8204;53.582;10.080;2023-04-26T06:07:40;100655.72;;;6.79;100.00
16194;BME280;8204;53.582;10.080;2023-04-26T06:10:09;100677.91;;;6.92;100.00
16194;BME280;8204;53.582;10.080;2023-04-26T06:12:39;100708.88;;;6.86;100.00
16194;BME280;8204;53.582;10.080;2023-04-26T06:15:09;100699.03;;;6.89;100.00
16194;BME280;8204;53.582;10.080;2023-04-26T06:17:39;100710.81;;;6.93;100.00
16194;BME280;8204;53.582;10.080;2023-04-26T06:20:11;100720.81;;;6.98;100.00
16194;BME280;8204;53.582;10.080;2023-04-26T06:22:40;100740.16;;;6.95;100.00
16194;BME280;8204;53.582;10.080;2023-04-26T06:25:09;100748.91;;;6.94;100.00
16194;BME280;8204;53.582;10.080;2023-04-26T06:27:39;100758.94;;;6.89;100.00
16194;BME280;8204;53.582;10.080;2023-04-26T06:30:08;100756.16;;;6.81;100.00
16194;BME280;8204;53.582;10.080;2023-04-26T06:32:39;100745.63;;;6.92;100.00
16194;BME280;8204;53.582;10.080;2023-04-26T06:35:11;100754.94;;;6.95;100.00
16194;BME280;8204;53.582;10.080;2023-04-26T06:37:40;100754.94;;;7.04;100.00
16194;BME280;8204;53.582;10.080;2023-04-26T06:40:10;100759.91;;;7.17;100.00
16194;BME280;8204;53.582;10.080;2023-04-26T06:42:41;100761.81;;;7.24;100.00
16194;BME280;8204;53.582;10.080;2023-04-26T06:45:10;100793.63;;;7.27;100.00
16194;BME280;8204;53.582;10.080;2023-04-26T06:47:39;100833.56;;;7.28;100.00
16194;BME280;8204;53.582;10.080;2023-04-26T06:50:11;100831.78;;;7.38;100.00
16194;BME280;8204;53.582;10.080;2023-04-26T06:52:40;100843.06;;;7.48;100.00
16194;BME280;8204;53.582;10.080;2023-04-26T06:55:09;100855.38;;;7.46;100.00
16194;BME280;8204;53.582;10.080;2023-04-26T06:57:40;100862.41;;;7.55;100.00
16194;BME280;8204;53.582;10.080;2023-04-26T07:00:10;100884.78;;;7.57;100.00
16194;BME280;8204;53.582;10.080;2023-04-26T07:02:39;100924.28;;;7.53;100.00
16194;BME280;8204;53.582;10.080;2023-04-26T07:05:11;100916.31;;;7.54;100.00
16194;BME280;8204;53.582;10.080;2023-04-26T07:07:40;100920.97;;;7.51;100.00
16194;BME280;8204;53.582;10.080;2023-04-26T07:10:09;100944.59;;;7.59;100.00
16194;BME280;8204;53.582;10.080;2023-04-26T07:12:37;100932.13;;;7.72;100.00
16194;BME280;8204;53.582;10.080;2023-04-26T07:15:08;100965.34;;;7.79;100.00
16194;BME280;8204;53.582;10.080;2023-04-26T07:17:37;100967.56;;;7.93;100.00
16194;BME280;8204;53.582;10.080;2023-04-26T07:20:07;100996.53;;;7.81;100.00
16194;BME280;8204;53.582;10.080;2023-04-26T07:22:39;100989.81;;;7.88;100.00
16194;BME280;8204;53.582;10.080;2023-04-26T07:25:08;101012.22;;;7.99;100.00
16194;BME280;8204;53.582;10.080;2023-04-26T07:27:37;101048.06;;;8.07;100.00
16194;BME280;8204;53.582;10.080;2023-04-26T07:30:07;101051.22;;;8.01;100.00
16194;BME280;8204;53.582;10.080;2023-04-26T07:32:36;101091.03;;;7.94;100.00
16194;BME280;8204;53.582;10.080;2023-04-26T07:35:06;101081.59;;;8.11;100.00
16194;BME280;8204;53.582;10.080;2023-04-26T07:37:44;101105.66;;;8.15;100.00
16194;BME280;8204;53.582;10.080;2023-04-26T07:40:13;101127.34;;;8.15;100.00
16194;BME280;8204;53.582;10.080;2023-04-26T07:42:43;101128.22;;;8.25;100.00
16194;BME280;8204;53.582;10.080;2023-04-26T07:45:12;101121.75;;;8.29;100.00
16194;BME280;8204;53.582;10.080;2023-04-26T07:47:41;101113.94;;;8.39;100.00
16194;BME280;8204;53.582;10.080;2023-04-26T07:50:11;101143.34;;;8.31;100.00
16194;BME280;8204;53.582;10.080;2023-04-26T07:52:43;101156.16;;;8.44;100.00
16194;BME280;8204;53.582;10.080;2023-04-26T07:55:12;101145.44;;;8.66;100.00
16194;BME280;8204;53.582;10.080;2023-04-26T07:57:41;101157.97;;;8.81;100.00
16194;BME280;8204;53.582;10.080;2023-04-26T08:00:11;101179.84;;;8.80;100.00
16194;BME280;8204;53.582;10.080;2023-04-26T08:02:41;101189.84;;;8.66;100.00
16194;BME280;8204;53.582;10.080;2023-04-26T08:05:12;101206.75;;;8.62;100.00
16194;BME280;8204;53.582;10.080;2023-04-26T08:07:44;101196.72;;;8.57;100.00
16194;BME280;8204;53.582;10.080;2023-04-26T08:10:12;101199.16;;;8.49;100.00
16194;BME280;8204;53.582;10.080;2023-04-26T08:12:41;101011.66;;;8.05;100.00
16194;BME280;8204;53.582;10.080;2023-04-26T08:15:11;100739.31;;;7.61;100.00
16194;BME280;8204;53.582;10.080;2023-04-26T08:17:40;100561.59;;;7.29;100.00
16194;BME280;8204;53.582;10.080;2023-04-26T08:20:10;100419.59;;;7.06;100.00
16194;BME280;8204;53.582;10.080;2023-04-26T08:22:39;100281.97;;;7.02;100.00
16194;BME280;8204;53.582;10.080;2023-04-26T08:25:11;100173.63;;;7.09;100.00
16194;BME280;8204;53.582;10.080;2023-04-26T08:27:40;100144.53;;;7.13;100.00
16194;BME280;8204;53.582;10.080;2023-04-26T08:30:10;100117.56;;;7.22;100.00
16194;BME280;8204;53.582;10.080;2023-04-26T08:32:39;100115.31;;;7.27;100.00
16194;BME280;8204;53.582;10.080;2023-04-26T08:35:08;100118.13;;;7.33;100.00
16194;BME280;8204;53.582;10.080;2023-04-26T08:37:38;100115.06;;;7.38;100.00
16194;BME280;8204;53.582;10.080;2023-04-26T08:40:08;100103.56;;;7.48;100.00
16194;BME280;8204;53.582;10.080;2023-04-26T08:42:41;100122.63;;;7.49;100.00
16194;BME280;8204;53.582;10.080;2023-04-26T08:45:13;100150.69;;;7.55;100.00
16194;BME280;8204;53.582;10.080;2023-04-26T08:47:46;100167.88;;;7.65;100.00
16194;BME280;8204;53.582;10.080;2023-04-26T08:50:19;100207.78;;;7.66;100.00
16194;BME280;8204;53.582;10.080;2023-04-26T08:52:50;100197.41;;;7.74;100.00
16194;BME280;8204;53.582;10.080;2023-04-26T08:55:19;100268.19;;;7.79;100.00
16194;BME280;8204;53.582;10.080;2023-04-26T08:57:51;100337.25;;;7.75;100.00
16194;BME280;8204;53.582;10.080;2023-04-26T09:00:20;100375.41;;;7.76;100.00
16194;BME280;8204;53.582;10.080;2023-04-26T09:02:51;100359.28;;;7.80;100.00
16194;BME280;8204;53.582;10.080;2023-04-26T09:05:21;100430.09;;;7.85;100.00
16194;BME280;8204;53.582;10.080;2023-04-26T09:07:55;100396.69;;;8.06;100.00
16194;BME280;8204;53.582;10.080;2023-04-26T09:10:24;100517.66;;;8.14;100.00
16194;BME280;8204;53.582;10.080;2023-04-26T09:12:56;100468.72;;;8.34;100.00
16194;BME280;8204;53.582;10.080;2023-04-26T09:15:25;100506.06;;;8.52;100.00
16194;BME280;8204;53.582;10.080;2023-04-26T09:17:54;100581.34;;;8.56;100.00
16194;BME280;8204;53.582;10.080;2023-04-26T09:20:24;100678.81;;;8.57;100.00
16194;BME280;8204;53.582;10.080;2023-04-26T09:23:02;100756.31;;;8.56;100.00
16194;BME280;8204;53.582;10.080;2023-04-26T09:25:31;100794.41;;;8.49;100.00
16194;BME280;8204;53.582;10.080;2023-04-26T09:28:20;100825.75;;;8.49;100.00
16194;BME280;8204;53.582;10.080;2023-04-26T09:30:49;100841.78;;;8.54;100.00
16194;BME280;8204;53.582;10.080;2023-04-26T09:33:18;100882.75;;;8.63;100.00
16194;BME280;8204;53.582;10.080;2023-04-26T09:35:53;100859.34;;;8.71;100.00
16194;BME280;8204;53.582;10.080;2023-04-26T09:38:22;100939.34;;;8.72;100.00
16194;BME280;8204;53.582;10.080;2023-04-26T09:40:51;100886.16;;;9.00;100.00
16194;BME280;8204;53.582;10.080;2023-04-26T09:43:24;100985.00;;;9.14;100.00
16194;BME280;8204;53.582;10.080;2023-04-26T09:45:54;100999.44;;;9.18;100.00
16194;BME280;8204;53.582;10.080;2023-04-26T09:48:25;101042.34;;;9.25;100.00
16194;BME280;8204;53.582;10.080;2023-04-26T09:50:57;101134.03;;;9.04;100.00
16194;BME280;8204;53.582;10.080;2023-04-26T09:53:27;101181.34;;;9.11;100.00
16194;BME280;8204;53.582;10.080;2023-04-26T09:56:04;101210.25;;;9.19;100.00
16194;BME280;8204;53.582;10.080;2023-04-26T09:58:39;101223.59;;;9.25;100.00
16194;BME280;8204;53.582;10.080;2023-04-26T10:01:24;101233.88;;;9.36;100.00
16194;BME280;8204;53.582;10.080;2023-04-26T10:03:56;101264.03;;;9.49;100.00
16194;BME280;8204;53.582;10.080;2023-04-26T10:06:26;101284.25;;;9.57;100.00
16194;BME280;8204;53.582;10.080;2023-04-26T10:08:56;101288.94;;;9.72;100.00
16194;BME280;8204;53.582;10.080;2023-04-26T10:11:25;101280.50;;;9.88;100.00
16194;BME280;8204;53.582;10.080;2023-04-26T10:13:58;101287.81;;;10.03;100.00
16194;BME280;8204;53.582;10.080;2023-04-26T10:16:27;101284.44;;;10.20;100.00
16194;BME280;8204;53.582;10.080;2023-04-26T10:18:56;101288.66;;;10.40;100.00
16194;BME280;8204;53.582;10.080;2023-04-26T10:21:30;101281.56;;;10.50;100.00
16194;BME280;8204;53.582;10.080;2023-04-26T10:24:02;101276.00;;;10.26;100.00
16194;BME280;8204;53.582;10.080;2023-04-26T10:26:48;101306.75;;;10.24;100.00
16194;BME280;8204;53.582;10.080;2023-04-26T10:29:21;101296.22;;;10.07;100.00
16194;BME280;8204;53.582;10.080;2023-04-26T10:32:04;101273.72;;;10.04;100.00
16194;BME280;8204;53.582;10.080;2023-04-26T10:34:34;101284.34;;;9.93;100.00
16194;BME280;8204;53.582;10.080;2023-04-26T10:37:08;101304.47;;;9.93;100.00
16194;BME280;8204;53.582;10.080;2023-04-26T10:39:38;101299.34;;;9.91;100.00
16194;BME280;8204;53.582;10.080;2023-04-26T10:42:17;101298.13;;;9.95;100.00
16194;BME280;8204;53.582;10.080;2023-04-26T10:44:51;101297.44;;;9.93;100.00
16194;BME280;8204;53.582;10.080;2023-04-26T10:47:28;101293.47;;;9.99;100.00
16194;BME280;8204;53.582;10.080;2023-04-26T10:50:05;101301.13;;;10.19;100.00
16194;BME280;8204;53.582;10.080;2023-04-26T10:52:35;101294.84;;;10.39;100.00
16194;BME280;8204;53.582;10.080;2023-04-26T10:55:05;101296.72;;;10.56;100.00
16194;BME280;8204;53.582;10.080;2023-04-26T10:57:49;101289.13;;;10.80;100.00
16194;BME280;8204;53.582;10.080;2023-04-26T11:00:31;101297.69;;;10.99;100.00
16194;BME280;8204;53.582;10.080;2023-04-26T11:03:09;101307.09;;;11.01;100.00
16194;BME280;8204;53.582;10.080;2023-04-26T11:05:52;101311.34;;;10.85;100.00
16194;BME280;8204;53.582;10.080;2023-04-26T11:08:25;101328.66;;;10.69;100.00
16194;BME280;8204;53.582;10.080;2023-04-26T11:11:04;101282.19;;;10.34;100.00
16194;BME280;8204;53.582;10.080;2023-04-26T11:13:35;101270.41;;;10.12;100.00
16194;BME280;8204;53.582;10.080;2023-04-26T11:16:08;101291.09;;;10.05;100.00
16194;BME280;8204;53.582;10.080;2023-04-26T11:18:39;101315.91;;;10.01;100.00
16194;BME280;8204;53.582;10.080;2023-04-26T11:21:09;101327.19;;;10.11;100.00
16194;BME280;8204;53.582;10.080;2023-04-26T11:23:40;101330.06;;;10.18;100.00
16194;BME280;8204;53.582;10.080;2023-04-26T11:26:09;101338.28;;;10.32;100.00
16194;BME280;8204;53.582;10.080;2023-04-26T11:28:38;101335.97;;;10.29;100.00
16194;BME280;8204;53.582;10.080;2023-04-26T11:31:11;101347.09;;;10.40;100.00
16194;BME280;8204;53.582;10.080;2023-04-26T11:33:40;101337.00;;;10.55;100.00
16194;BME280;8204;53.582;10.080;2023-04-26T11:36:11;101329.78;;;10.57;100.00
16194;BME280;8204;53.582;10.080;2023-04-26T11:38:42;101320.13;;;10.67;100.00
16194;BME280;8204;53.582;10.080;2023-04-26T11:41:11;101315.63;;;10.77;100.00
16194;BME280;8204;53.582;10.080;2023-04-26T11:43:40;101321.88;;;10.93;100.00
16194;BME280;8204;53.582;10.080;2023-04-26T11:46:09;101313.59;;;10.97;100.00
16194;BME280;8204;53.582;10.080;2023-04-26T11:48:40;101315.66;;;11.21;100.00
16194;BME280;8204;53.582;10.080;2023-04-26T11:51:09;101320.69;;;11.49;100.00
16194;BME280;8204;53.582;10.080;2023-04-26T11:53:39;101319.22;;;11.64;100.00
16194;BME280;8204;53.582;10.080;2023-04-26T11:56:14;101332.97;;;11.83;100.00
16194;BME280;8204;53.582;10.080;2023-04-26T11:58:45;101331.47;;;11.98;100.00
16194;BME280;8204;53.582;10.080;2023-04-26T12:01:22;101340.59;;;12.12;100.00
16194;BME280;8204;53.582;10.080;2023-04-26T12:03:58;101370.00;;;12.40;100.00
16194;BME280;8204;53.582;10.080;2023-04-26T12:06:30;101344.25;;;12.44;100.00
16194;BME280;8204;53.582;10.080;2023-04-26T12:09:01;101348.34;;;12.38;100.00
16194;BME280;8204;53.582;10.080;2023-04-26T12:11:30;101351.81;;;12.22;100.00
16194;BME280;8204;53.582;10.080;2023-04-26T12:13:59;101348.91;;;12.25;100.00
16194;BME280;8204;53.582;10.080;2023-04-26T12:16:29;101349.25;;;12.55;100.00
16194;BME280;8204;53.582;10.080;2023-04-26T12:19:03;101354.22;;;12.66;98.00
16194;BME280;8204;53.582;10.080;2023-04-26T12:21:39;101347.59;;;12.54;100.00
16194;BME280;8204;53.582;10.080;2023-04-26T12:24:20;101346.00;;;12.69;100.00
16194;BME280;8204;53.582;10.080;2023-04-26T12:26:50;101344.22;;;13.03;100.00
16194;BME280;8204;53.582;10.080;2023-04-26T12:29:19;101348.84;;;13.09;100.00
16194;BME280;8204;53.582;10.080;2023-04-26T12:31:47;101338.38;;;13.24;100.00
16194;BME280;8204;53.582;10.080;2023-04-26T12:34:19;101348.25;;;13.46;98.86
16194;BME280;8204;53.582;10.080;2023-04-26T12:36:48;101361.44;;;13.38;92.45
16194;BME280;8204;53.582;10.080;2023-04-26T12:39:18;101361.81;;;13.59;86.46
16194;BME280;8204;53.582;10.080;2023-04-26T12:41:47;101348.97;;;13.72;83.42
16194;BME280;8204;53.582;10.080;2023-04-26T12:44:16;101362.31;;;13.86;86.72
16194;BME280;8204;53.582;10.080;2023-04-26T12:46:45;101353.41;;;13.95;86.08
16194;BME280;8204;53.582;10.080;2023-04-26T12:49:13;101352.25;;;13.74;88.13
16194;BME280;8204;53.582;10.080;2023-04-26T12:51:45;101353.53;;;13.46;90.72
16194;BME280;8204;53.582;10.080;2023-04-26T12:54:13;101353.69;;;13.37;95.69
16194;BME280;8204;53.582;10.080;2023-04-26T12:56:46;101368.81;;;13.27;100.00
16194;BME280;8204;53.582;10.080;2023-04-26T12:59:15;101395.44;;;13.24;97.09
16194;BME280;8204;53.582;10.080;2023-04-26T13:01:44;101384.00;;;12.74;87.22
16194;BME280;8204;53.582;10.080;2023-04-26T13:04:13;101393.84;;;12.72;82.40